Time;durP1;ratioP1;P1;durP2;ratioP2;P2;SDS_P1;SDS_P2;PMS_P1;PMS_P2;Temp;Humidity;BMP_temperature;BMP_pressure;BME280_temperature;BME280_humidity;BME280_pressure;Samples;Min_cycle;Max_cycle;Signal;HPM_P1;HPM_P2
2021/10/10 00:00:50;;;;;;;15.00;7.70;;;9.10;99.90;;;;;;5099172;28;20446;-48
2021/10/10 00:03:17;;;;;;;14.83;7.57;;;9.10;99.90;;;;;;5098481;28;20446;-47
2021/10/10 00:05:45;;;;;;;12.10;7.60;;;9.10;99.90;;;;;;5098376;28;20430;-45
2021/10/10 00:08:12;;;;;;;12.20;6.93;;;9.10;99.90;;;;;;5098587;28;20453;-53
2021/10/10 00:10:38;;;;;;;14.30;7.70;;;9.00;99.90;;;;;;5098368;28;20458;-41
2021/10/10 00:13:05;;;;;;;14.20;8.73;;;9.00;99.90;;;;;;5098503;28;20462;-47
2021/10/10 00:15:32;;;;;;;9.00;6.47;;;8.90;99.90;;;;;;5098132;28;20446;-48
2021/10/10 00:17:59;;;;;;;12.97;7.30;;;8.90;99.90;;;;;;5098188;28;20458;-49
2021/10/10 00:20:25;;;;;;;13.40;7.07;;;8.90;99.90;;;;;;5098127;28;20460;-50
2021/10/10 00:22:55;;;;;;;11.40;6.60;;;8.90;99.90;;;;;;5098133;28;20493;-47
2021/10/10 00:25:23;;;;;;;11.33;7.60;;;8.80;99.90;;;;;;5098185;28;20469;-50
2021/10/10 00:27:52;;;;;;;14.03;8.10;;;8.80;99.90;;;;;;5098092;28;20498;-47
2021/10/10 00:30:21;;;;;;;14.50;8.97;;;8.80;99.90;;;;;;5097646;28;20487;-49
2021/10/10 00:32:47;;;;;;;16.33;9.27;;;8.80;99.90;;;;;;5097939;28;20526;-45
2021/10/10 00:35:15;;;;;;;10.40;6.60;;;8.70;99.90;;;;;;5097750;28;20434;-48
2021/10/10 00:37:41;;;;;;;14.97;8.10;;;8.70;99.90;;;;;;5097888;28;20492;-50
2021/10/10 00:40:11;;;;;;;18.27;7.63;;;8.70;99.90;;;;;;5097738;28;20500;-50
2021/10/10 00:42:41;;;;;;;13.37;7.27;;;8.70;99.90;;;;;;5097710;28;20470;-57
2021/10/10 00:45:08;;;;;;;12.43;7.97;;;8.70;99.90;;;;;;5097843;28;20469;-43
2021/10/10 00:47:39;;;;;;;12.53;7.37;;;8.60;99.90;;;;;;5097698;28;20520;-47
2021/10/10 00:50:07;;;;;;;12.10;8.07;;;8.60;99.90;;;;;;5097668;28;20446;-42
2021/10/10 00:52:41;;;;;;;13.77;6.50;;;8.60;99.90;;;;;;5097375;28;20466;-49
2021/10/10 00:55:10;;;;;;;11.07;6.53;;;8.60;99.90;;;;;;5097594;28;20455;-47
2021/10/10 00:57:38;;;;;;;12.80;7.53;;;8.50;99.90;;;;;;5097344;28;20454;-47
2021/10/10 01:00:08;;;;;;;12.63;6.97;;;8.50;99.90;;;;;;5097393;28;20431;-44
2021/10/10 01:02:35;;;;;;;12.43;7.30;;;8.50;99.90;;;;;;5096926;28;20466;-48
2021/10/10 01:05:04;;;;;;;11.67;7.40;;;8.50;99.90;;;;;;5097543;28;20469;-43
2021/10/10 01:07:30;;;;;;;12.80;7.60;;;8.50;99.90;;;;;;5097096;28;20487;-45
2021/10/10 01:09:58;;;;;;;12.53;7.67;;;8.50;99.90;;;;;;5096732;28;20492;-51
2021/10/10 01:12:27;;;;;;;11.57;7.70;;;8.50;99.90;;;;;;5097047;28;20497;-46
2021/10/10 01:14:54;;;;;;;13.83;7.27;;;8.40;99.90;;;;;;5096996;28;20444;-48
2021/10/10 01:17:20;;;;;;;17.50;7.23;;;8.40;99.90;;;;;;5096573;28;20455;-44
2021/10/10 01:19:48;;;;;;;11.90;6.47;;;8.40;99.90;;;;;;5096462;28;20419;-44
2021/10/10 01:22:16;;;;;;;11.40;7.43;;;8.30;99.90;;;;;;5096457;28;20496;-49
2021/10/10 01:24:43;;;;;;;18.27;7.60;;;8.30;99.90;;;;;;5096926;28;20423;-48
2021/10/10 01:27:14;;;;;;;8.60;6.00;;;8.30;99.90;;;;;;5096377;28;20465;-46
2021/10/10 01:29:40;;;;;;;17.43;7.93;;;8.20;99.90;;;;;;5096475;28;20458;-46
2021/10/10 01:32:08;;;;;;;13.87;6.70;;;8.20;99.90;;;;;;5096582;28;20468;-44
2021/10/10 01:34:35;;;;;;;11.90;6.80;;;8.20;99.90;;;;;;5096743;28;20443;-46
2021/10/10 01:37:01;;;;;;;14.47;8.60;;;8.10;99.90;;;;;;5097281;28;20450;-47
2021/10/10 01:39:29;;;;;;;11.20;6.60;;;8.10;99.90;;;;;;5097238;28;20437;-49
2021/10/10 01:41:56;;;;;;;14.77;7.23;;;8.10;99.90;;;;;;5097082;28;20438;-48
2021/10/10 01:44:23;;;;;;;12.40;7.80;;;8.10;99.90;;;;;;5097479;28;20481;-49
2021/10/10 01:46:50;;;;;;;10.90;6.57;;;8.00;99.90;;;;;;5097474;28;20464;-47
2021/10/10 01:49:16;;;;;;;16.40;7.13;;;8.00;99.90;;;;;;5097095;28;20523;-50
2021/10/10 01:51:43;;;;;;;12.17;7.60;;;8.10;99.90;;;;;;5096792;28;20472;-48
2021/10/10 01:54:12;;;;;;;12.77;8.13;;;8.10;99.90;;;;;;5097023;28;20434;-46
2021/10/10 01:56:40;;;;;;;13.83;7.87;;;8.00;99.90;;;;;;5097062;28;20505;-47
2021/10/10 01:59:08;;;;;;;10.67;7.20;;;8.00;99.90;;;;;;5096955;28;20457;-49
2021/10/10 02:01:37;;;;;;;12.37;8.10;;;8.00;99.90;;;;;;5097753;28;20447;-47
2021/10/10 02:04:04;;;;;;;15.33;8.00;;;8.00;99.90;;;;;;5097049;28;20468;-48
2021/10/10 02:06:31;;;;;;;13.33;8.83;;;8.10;99.90;;;;;;5096868;28;20443;-48
2021/10/10 02:08:58;;;;;;;14.47;7.20;;;8.10;99.90;;;;;;5096636;28;20524;-48
2021/10/10 02:11:24;;;;;;;8.73;6.93;;;8.10;99.90;;;;;;5096776;28;20442;-46
2021/10/10 02:13:52;;;;;;;15.07;8.17;;;8.00;99.90;;;;;;5096831;28;20446;-49
2021/10/10 02:16:19;;;;;;;14.87;7.30;;;8.00;99.90;;;;;;5096258;28;20461;-44
2021/10/10 02:18:48;;;;;;;17.80;7.67;;;7.90;99.90;;;;;;5096307;28;20477;-44
2021/10/10 02:21:15;;;;;;;9.30;6.30;;;7.80;99.90;;;;;;5096517;28;20498;-43
2021/10/10 02:23:41;;;;;;;12.70;6.57;;;7.90;99.90;;;;;;5096271;28;20454;-54
2021/10/10 02:26:12;;;;;;;11.40;8.10;;;7.80;99.90;;;;;;5096783;28;20465;-47
2021/10/10 02:28:42;;;;;;;15.50;9.00;;;7.80;99.90;;;;;;5096289;28;20548;-48
2021/10/10 02:31:10;;;;;;;12.93;8.00;;;7.80;99.90;;;;;;5096245;28;20482;-50
2021/10/10 02:33:36;;;;;;;11.67;7.33;;;7.80;99.90;;;;;;5096181;28;20467;-44
2021/10/10 02:36:04;;;;;;;12.80;8.40;;;7.80;99.90;;;;;;5095963;28;20480;-47
2021/10/10 02:38:30;;;;;;;14.07;7.93;;;7.70;99.90;;;;;;5096060;28;20470;-47
2021/10/10 02:40:57;;;;;;;23.20;9.83;;;7.60;99.90;;;;;;5099894;28;20446;-44
2021/10/10 02:43:23;;;;;;;14.40;8.57;;;7.70;99.90;;;;;;5099497;28;20488;-44
2021/10/10 02:45:50;;;;;;;14.63;9.00;;;7.70;99.90;;;;;;5100222;28;20451;-46
2021/10/10 02:48:18;;;;;;;14.03;7.77;;;7.70;99.90;;;;;;5099860;28;20522;-45
2021/10/10 02:50:46;;;;;;;13.60;9.07;;;7.70;99.90;;;;;;5100044;28;20480;-47
2021/10/10 02:53:13;;;;;;;20.77;9.07;;;7.70;99.90;;;;;;5099936;28;20454;-44
2021/10/10 02:55:39;;;;;;;14.10;8.17;;;7.70;99.90;;;;;;5099219;28;20438;-48
2021/10/10 02:58:06;;;;;;;18.80;8.27;;;7.70;99.90;;;;;;5099675;28;20480;-47
2021/10/10 03:00:33;;;;;;;13.83;8.67;;;7.60;99.90;;;;;;5100039;28;20974;-49
2021/10/10 03:03:00;;;;;;;17.00;7.53;;;7.60;99.90;;;;;;5099247;28;20446;-47
2021/10/10 03:05:31;;;;;;;8.13;7.30;;;7.60;99.90;;;;;;5099088;28;20426;-46
2021/10/10 03:07:58;;;;;;;19.90;7.80;;;7.50;99.90;;;;;;5099609;28;20439;-39
2021/10/10 03:10:24;;;;;;;11.40;7.60;;;7.40;99.90;;;;;;5098955;28;20454;-56
2021/10/10 03:12:51;;;;;;;20.10;8.70;;;7.40;99.90;;;;;;5099153;28;20476;-47
2021/10/10 03:15:17;;;;;;;14.03;8.10;;;7.40;99.90;;;;;;5098918;28;20483;-44
2021/10/10 03:17:44;;;;;;;16.93;9.23;;;7.40;99.90;;;;;;5098741;28;20438;-49
2021/10/10 03:20:12;;;;;;;15.80;7.77;;;7.40;99.90;;;;;;5099049;28;20449;-43
2021/10/10 03:22:40;;;;;;;17.70;8.13;;;7.30;99.90;;;;;;5099135;28;20422;-46
2021/10/10 03:25:07;;;;;;;13.90;9.40;;;7.30;99.90;;;;;;5099237;28;20450;-44
2021/10/10 03:27:34;;;;;;;17.30;10.70;;;7.30;99.90;;;;;;5099087;28;20460;-46
2021/10/10 03:30:00;;;;;;;17.83;9.87;;;7.20;99.90;;;;;;5098732;28;20482;-47
2021/10/10 03:32:27;;;;;;;13.40;7.33;;;7.20;99.90;;;;;;5099155;28;20460;-45
2021/10/10 03:34:53;;;;;;;16.43;8.40;;;7.30;99.90;;;;;;5099108;28;20468;-49
2021/10/10 03:37:21;;;;;;;18.07;9.07;;;7.30;99.90;;;;;;5098457;28;20438;-46
2021/10/10 03:39:49;;;;;;;18.73;9.27;;;7.30;99.90;;;;;;5100102;28;20454;-48
2021/10/10 03:42:16;;;;;;;14.03;7.17;;;7.20;99.90;;;;;;5100023;28;20447;-55
2021/10/10 03:44:43;;;;;;;13.20;8.33;;;7.20;99.90;;;;;;5099799;28;20466;-46
2021/10/10 03:47:14;;;;;;;14.63;8.30;;;7.10;99.90;;;;;;5099503;28;20443;-54
2021/10/10 03:49:42;;;;;;;14.93;8.03;;;7.10;99.90;;;;;;5099359;28;20513;-51
2021/10/10 03:52:09;;;;;;;21.20;8.70;;;7.10;99.90;;;;;;5098902;28;20464;-52
2021/10/10 03:57:23;;;;;;;15.33;8.43;;;7.00;99.90;;;;;;5098921;28;20463;-46
2021/10/10 03:59:54;;;;;;;15.33;7.10;;;7.00;99.90;;;;;;5099071;28;20485;-44
2021/10/10 04:02:21;;;;;;;15.40;7.10;;;7.00;99.90;;;;;;5099305;28;20407;-44
2021/10/10 04:04:51;;;;;;;14.23;8.03;;;7.00;99.90;;;;;;5099072;28;20462;-43
2021/10/10 04:07:17;;;;;;;17.43;9.37;;;7.10;99.90;;;;;;5098790;28;20435;-50
2021/10/10 04:09:49;;;;;;;13.90;8.77;;;7.10;99.90;;;;;;5098255;28;20463;-48
2021/10/10 04:12:16;;;;;;;14.03;8.60;;;7.10;99.90;;;;;;5098320;28;20425;-46
2021/10/10 04:14:44;;;;;;;14.53;7.13;;;7.10;99.90;;;;;;5098336;28;20462;-45
2021/10/10 04:17:11;;;;;;;12.20;8.63;;;7.00;99.90;;;;;;5098472;28;20444;-47
2021/10/10 04:19:40;;;;;;;16.30;9.20;;;6.90;99.90;;;;;;5098315;28;20446;-48
2021/10/10 04:22:07;;;;;;;13.53;8.30;;;6.90;99.90;;;;;;5097952;28;20468;-44
2021/10/10 04:24:34;;;;;;;13.47;7.77;;;6.90;99.90;;;;;;5097555;28;20474;-49
2021/10/10 04:27:01;;;;;;;16.10;9.00;;;6.90;99.90;;;;;;5097787;28;20438;-47
2021/10/10 04:29:27;;;;;;;21.73;10.00;;;6.80;99.90;;;;;;5097540;28;20564;-47
2021/10/10 04:31:55;;;;;;;13.37;8.50;;;6.90;99.90;;;;;;5098238;28;20478;-48
2021/10/10 04:34:24;;;;;;;12.27;8.20;;;6.90;99.90;;;;;;5097911;28;20476;-47
2021/10/10 04:36:51;;;;;;;12.33;7.23;;;6.90;99.90;;;;;;5098053;28;20460;-56
2021/10/10 04:39:17;;;;;;;16.30;9.00;;;6.90;99.90;;;;;;5097937;28;20470;-46
2021/10/10 04:41:44;;;;;;;13.40;7.67;;;6.80;99.90;;;;;;5098215;28;20434;-46
2021/10/10 04:44:10;;;;;;;18.90;9.87;;;6.80;99.90;;;;;;5097966;28;20458;-50
2021/10/10 04:46:37;;;;;;;14.30;8.60;;;6.80;99.90;;;;;;5097560;28;20460;-48
2021/10/10 04:49:05;;;;;;;13.67;8.63;;;6.80;99.90;;;;;;5098001;28;20470;-49
2021/10/10 04:51:32;;;;;;;18.60;8.17;;;6.70;99.90;;;;;;5097626;28;20486;-50
2021/10/10 04:53:59;;;;;;;21.80;9.30;;;6.70;99.90;;;;;;5097326;28;20485;-46
2021/10/10 04:56:25;;;;;;;18.03;9.43;;;6.60;99.90;;;;;;5097410;28;20435;-52
2021/10/10 04:58:52;;;;;;;23.33;9.20;;;6.60;99.90;;;;;;5096963;28;20464;-46
2021/10/10 05:01:19;;;;;;;15.00;7.33;;;6.50;99.90;;;;;;5097397;28;20394;-49
2021/10/10 05:03:45;;;;;;;16.17;8.57;;;6.50;99.90;;;;;;5096411;28;20435;-48
2021/10/10 05:06:16;;;;;;;18.57;9.20;;;6.50;99.90;;;;;;5097417;28;20472;-48
2021/10/10 05:08:43;;;;;;;17.40;10.67;;;6.50;99.90;;;;;;5097231;28;20423;-48
2021/10/10 05:11:10;;;;;;;22.93;10.43;;;6.50;99.90;;;;;;5097105;28;20479;-47
2021/10/10 05:13:37;;;;;;;25.67;11.70;;;6.50;99.90;;;;;;5096698;28;20472;-50
2021/10/10 05:16:04;;;;;;;12.23;7.40;;;6.50;99.90;;;;;;5097216;28;20455;-48
2021/10/10 05:18:31;;;;;;;16.60;8.00;;;6.50;99.90;;;;;;5096976;28;20468;-48
2021/10/10 05:20:58;;;;;;;18.70;9.77;;;6.50;99.90;;;;;;5097352;28;20447;-52
2021/10/10 05:23:28;;;;;;;16.83;8.30;;;6.50;99.90;;;;;;5097694;28;20438;-52
2021/10/10 05:25:58;;;;;;;15.73;6.47;;;6.50;99.90;;;;;;5097257;28;20434;-51
2021/10/10 05:28:25;;;;;;;12.40;9.33;;;6.50;99.90;;;;;;5097130;28;20454;-49
2021/10/10 05:30:52;;;;;;;11.90;7.90;;;6.40;99.90;;;;;;5096598;28;20479;-48
2021/10/10 05:33:19;;;;;;;15.27;8.90;;;6.30;99.90;;;;;;5096413;28;20678;-44
2021/10/10 05:35:45;;;;;;;13.80;8.70;;;6.30;99.90;;;;;;5096981;28;20438;-46
2021/10/10 05:38:12;;;;;;;18.20;10.27;;;6.30;99.90;;;;;;5096482;28;20962;-46
2021/10/10 05:40:40;;;;;;;14.20;8.80;;;6.30;99.90;;;;;;5096262;28;20435;-48
2021/10/10 05:43:07;;;;;;;18.70;9.50;;;6.30;99.90;;;;;;5096212;28;20450;-49
2021/10/10 05:45:33;;;;;;;23.00;9.33;;;6.20;99.90;;;;;;5096240;28;20474;-48
2021/10/10 05:48:00;;;;;;;14.07;8.67;;;6.20;99.90;;;;;;5096345;28;20434;-45
2021/10/10 05:50:27;;;;;;;15.17;8.53;;;6.20;99.90;;;;;;5096312;28;20482;-42
2021/10/10 05:52:54;;;;;;;19.37;9.10;;;6.20;99.90;;;;;;5096676;28;20431;-45
2021/10/10 05:55:23;;;;;;;16.63;8.40;;;6.20;99.90;;;;;;5096636;28;20466;-49
2021/10/10 05:57:51;;;;;;;12.33;7.87;;;6.30;99.90;;;;;;5096607;28;20426;-54
2021/10/10 06:00:20;;;;;;;15.13;8.30;;;6.30;99.90;;;;;;5096585;28;20462;-43
2021/10/10 06:02:47;;;;;;;13.67;7.97;;;6.30;99.90;;;;;;5096081;28;20466;-44
2021/10/10 06:05:15;;;;;;;18.60;10.40;;;6.30;99.90;;;;;;5096164;28;20786;-47
2021/10/10 06:07:42;;;;;;;18.17;10.07;;;6.30;99.90;;;;;;5096194;28;20439;-46
2021/10/10 06:10:12;;;;;;;19.60;9.10;;;6.30;99.90;;;;;;5095512;28;20466;-44
2021/10/10 06:12:39;;;;;;;17.57;9.13;;;6.30;99.90;;;;;;5096290;28;20434;-44
2021/10/10 06:15:09;;;;;;;17.60;8.10;;;6.40;99.90;;;;;;5096238;28;20462;-47
2021/10/10 06:17:37;;;;;;;19.10;10.23;;;6.50;99.90;;;;;;5096360;28;20486;-45
2021/10/10 06:20:05;;;;;;;16.40;9.90;;;6.50;99.90;;;;;;5096201;28;20470;-50
2021/10/10 06:22:31;;;;;;;18.40;9.20;;;6.50;99.90;;;;;;5096451;28;20435;-50
2021/10/10 06:24:58;;;;;;;31.60;9.70;;;6.50;99.90;;;;;;5096224;28;20466;-50
2021/10/10 06:27:25;;;;;;;19.83;9.03;;;6.50;99.90;;;;;;5096071;28;20469;-48
2021/10/10 06:29:51;;;;;;;16.93;9.53;;;6.50;99.90;;;;;;5096252;28;20446;-47
2021/10/10 06:32:19;;;;;;;17.17;9.80;;;6.50;99.90;;;;;;5096201;28;20442;-47
2021/10/10 06:34:46;;;;;;;17.43;10.20;;;6.50;99.90;;;;;;5096266;28;20470;-46
2021/10/10 06:37:12;;;;;;;18.47;8.77;;;6.50;99.90;;;;;;5096532;28;20427;-44
2021/10/10 06:39:41;;;;;;;15.93;9.80;;;6.50;99.90;;;;;;5095840;28;20434;-50
2021/10/10 06:42:08;;;;;;;17.83;9.90;;;6.60;99.90;;;;;;5095657;28;20407;-49
2021/10/10 06:44:36;;;;;;;20.90;9.50;;;6.60;99.90;;;;;;5095715;28;20446;-47
2021/10/10 06:47:03;;;;;;;20.30;10.40;;;6.70;99.90;;;;;;5096038;28;20450;-48
2021/10/10 06:49:31;;;;;;;35.97;10.60;;;6.80;99.90;;;;;;5095862;28;20442;-46
2021/10/10 06:51:57;;;;;;;22.40;9.87;;;6.80;99.90;;;;;;5096062;28;20471;-48
2021/10/10 06:54:24;;;;;;;16.77;10.43;;;6.90;99.90;;;;;;5095843;28;20439;-45
2021/10/10 06:56:51;;;;;;;20.50;10.13;;;6.90;99.90;;;;;;5095851;28;20442;-42
2021/10/10 06:59:17;;;;;;;13.00;9.30;;;6.90;99.90;;;;;;5095787;28;20473;-47
2021/10/10 07:01:47;;;;;;;18.97;10.30;;;6.90;99.90;;;;;;5095829;28;20458;-43
2021/10/10 07:04:13;;;;;;;21.27;9.00;;;7.00;99.90;;;;;;5096147;28;20472;-46
2021/10/10 07:06:41;;;;;;;18.93;10.30;;;7.10;99.90;;;;;;5095959;28;20431;-45
2021/10/10 07:09:11;;;;;;;14.47;9.60;;;7.10;99.90;;;;;;5095950;28;20466;-46
2021/10/10 07:11:38;;;;;;;19.03;9.47;;;7.20;99.90;;;;;;5095159;28;20534;-49
2021/10/10 07:14:05;;;;;;;17.67;9.77;;;7.20;99.90;;;;;;5095770;28;20446;-50
2021/10/10 07:16:33;;;;;;;22.60;11.03;;;7.20;99.90;;;;;;5095621;28;20525;-46
2021/10/10 07:19:03;;;;;;;16.50;10.70;;;7.30;99.90;;;;;;5095714;28;20450;-49
2021/10/10 07:21:42;;;;;;;18.37;10.70;;;7.30;99.90;;;;;;5095975;28;20473;-50
2021/10/10 07:26:54;;;;;;;18.60;9.70;;;7.40;99.90;;;;;;5097508;28;20471;-47
2021/10/10 07:29:21;;;;;;;21.80;10.20;;;7.50;99.90;;;;;;5099531;28;20461;-46
2021/10/10 07:31:48;;;;;;;17.30;10.63;;;7.60;99.90;;;;;;5098996;28;20617;-49
2021/10/10 07:34:16;;;;;;;17.30;10.57;;;7.60;99.90;;;;;;5099218;28;20454;-46
2021/10/10 07:36:43;;;;;;;19.70;10.70;;;7.70;99.90;;;;;;5099074;28;20466;-51
2021/10/10 07:39:11;;;;;;;19.97;10.30;;;7.80;99.90;;;;;;5099158;28;20449;-46
2021/10/10 07:41:40;;;;;;;16.60;9.50;;;7.80;99.90;;;;;;5099659;28;20462;-48
2021/10/10 07:44:08;;;;;;;21.33;10.00;;;7.90;99.90;;;;;;5099089;28;20454;-47
2021/10/10 07:46:38;;;;;;;18.80;10.30;;;8.00;99.90;;;;;;5099048;28;20449;-49
2021/10/10 07:49:08;;;;;;;18.10;10.60;;;8.10;99.90;;;;;;5098771;28;20458;-50
2021/10/10 07:51:34;;;;;;;19.20;9.80;;;8.20;99.90;;;;;;5098758;28;20469;-48
2021/10/10 07:54:01;;;;;;;20.33;11.73;;;8.20;99.90;;;;;;5098558;28;20472;-47
2021/10/10 07:56:29;;;;;;;17.43;10.53;;;8.30;99.90;;;;;;5098468;28;20459;-50
2021/10/10 07:58:56;;;;;;;21.03;10.50;;;8.40;99.90;;;;;;5097890;28;20447;-47
2021/10/10 08:01:22;;;;;;;21.00;12.00;;;8.50;99.90;;;;;;5098592;28;20500;-49
2021/10/10 08:03:49;;;;;;;25.50;12.07;;;8.60;99.90;;;;;;5098780;28;20464;-49
2021/10/10 08:06:15;;;;;;;18.87;10.10;;;8.70;99.90;;;;;;5098180;28;20492;-47
2021/10/10 08:08:42;;;;;;;13.77;9.87;;;8.90;99.90;;;;;;5098951;28;20435;-47
2021/10/10 08:11:09;;;;;;;20.50;11.33;;;9.00;99.90;;;;;;5098648;28;20863;-44
2021/10/10 08:13:37;;;;;;;19.60;9.83;;;9.10;99.90;;;;;;5097999;28;20442;-47
2021/10/10 08:16:04;;;;;;;23.70;10.90;;;9.20;99.90;;;;;;5097878;28;20485;-50
2021/10/10 08:18:30;;;;;;;19.80;11.50;;;9.20;99.90;;;;;;5098152;28;20431;-46
2021/10/10 08:20:57;;;;;;;18.27;11.40;;;9.30;99.90;;;;;;5098129;28;20466;-48
2021/10/10 08:23:24;;;;;;;20.33;8.87;;;9.30;99.90;;;;;;5098198;28;20480;-54
2021/10/10 08:25:50;;;;;;;18.40;10.23;;;9.40;99.90;;;;;;5098045;28;20458;-55
2021/10/10 08:28:17;;;;;;;19.67;9.20;;;9.50;99.90;;;;;;5098155;28;21048;-49
2021/10/10 08:30:49;;;;;;;17.80;10.60;;;9.70;99.90;;;;;;5098349;28;20442;-58
2021/10/10 08:33:15;;;;;;;19.43;10.23;;;9.80;99.90;;;;;;5098090;28;20443;-53
2021/10/10 08:35:44;;;;;;;26.43;9.80;;;9.90;99.90;;;;;;5097830;28;20481;-53
2021/10/10 08:38:11;;;;;;;16.00;9.23;;;10.00;99.90;;;;;;5097974;28;20427;-56
2021/10/10 08:40:40;;;;;;;18.73;8.80;;;10.20;99.90;;;;;;5097480;28;20447;-42
2021/10/10 08:43:08;;;;;;;21.90;9.43;;;10.40;99.90;;;;;;5097703;28;20462;-44
2021/10/10 08:45:39;;;;;;;15.20;9.73;;;10.50;99.90;;;;;;5097835;28;20461;-43
2021/10/10 08:48:07;;;;;;;17.43;9.00;;;10.80;99.90;;;;;;5097918;28;20487;-53
2021/10/10 08:50:34;;;;;;;15.97;8.70;;;11.00;99.90;;;;;;5098422;28;20455;-47
2021/10/10 08:53:02;;;;;;;17.47;9.60;;;11.40;99.90;;;;;;5097230;28;20478;-51
2021/10/10 08:55:31;;;;;;;13.60;8.10;;;11.90;99.90;;;;;;5097212;28;20446;-47
2021/10/10 08:57:58;;;;;;;19.00;8.83;;;12.60;99.90;;;;;;5096478;28;20472;-43
2021/10/10 09:00:30;;;;;;;10.73;7.40;;;13.80;99.90;;;;;;5096650;28;20454;-56
2021/10/10 09:02:57;;;;;;;10.70;9.23;;;15.30;99.90;;;;;;5096953;28;20419;-61
2021/10/10 09:05:26;;;;;;;17.87;10.50;;;16.90;93.30;;;;;;5096911;28;20439;-53
2021/10/10 09:07:54;;;;;;;15.63;9.57;;;17.50;86.40;;;;;;5097304;28;20461;-53
2021/10/10 09:10:24;;;;;;;14.27;8.70;;;17.50;81.70;;;;;;5097366;28;20447;-54
2021/10/10 09:12:52;;;;;;;15.07;9.77;;;17.10;78.00;;;;;;5096996;28;20454;-46
2021/10/10 09:15:20;;;;;;;14.50;8.87;;;16.70;77.50;;;;;;5097673;28;20458;-57
2021/10/10 09:17:57;;;;;;;13.80;8.67;;;16.20;78.60;;;;;;5096807;28;20457;-46
2021/10/10 09:20:30;;;;;;;11.43;7.60;;;15.80;78.90;;;;;;5096693;28;20484;-51
2021/10/10 09:22:57;;;;;;;10.07;8.03;;;15.70;80.80;;;;;;5097002;28;20491;-46
2021/10/10 09:25:24;;;;;;;12.10;7.37;;;16.60;79.10;;;;;;5096722;28;20446;-45
2021/10/10 09:27:51;;;;;;;10.40;7.20;;;17.30;75.10;;;;;;5096591;28;20668;-55
2021/10/10 09:30:21;;;;;;;10.70;7.30;;;17.40;72.10;;;;;;5096586;28;20426;-52
2021/10/10 09:32:54;;;;;;;12.50;8.00;;;17.10;74.00;;;;;;5096670;28;20474;-47
2021/10/10 09:35:25;;;;;;;12.00;7.83;;;17.50;71.60;;;;;;5096781;28;20434;-49
2021/10/10 09:38:08;;;;;;;13.37;7.33;;;18.70;70.00;;;;;;5096901;28;20466;-49
2021/10/10 09:40:40;;;;;;;11.93;7.80;;;20.60;66.60;;;;;;5096618;28;20439;-45
2021/10/10 09:43:07;;;;;;;11.90;8.13;;;22.00;60.30;;;;;;5096840;28;20502;-49
2021/10/10 09:45:41;;;;;;;13.40;8.30;;;23.30;54.10;;;;;;5096228;28;20434;-50
2021/10/10 09:48:08;;;;;;;13.30;7.97;;;24.30;50.50;;;;;;5097028;28;20487;-45
2021/10/10 09:50:37;;;;;;;12.13;8.37;;;25.00;49.10;;;;;;5096359;28;20454;-46
2021/10/10 09:53:08;;;;;;;9.90;7.60;;;25.60;46.90;;;;;;5096738;28;20454;-56
2021/10/10 09:55:36;;;;;;;11.30;7.63;;;25.80;44.80;;;;;;5096860;28;20441;-50
2021/10/10 09:58:04;;;;;;;11.53;6.53;;;26.00;42.10;;;;;;5096968;28;20516;-45
2021/10/10 10:00:33;;;;;;;10.17;6.30;;;26.10;41.70;;;;;;5096024;28;20488;-47
2021/10/10 10:03:06;;;;;;;11.43;7.60;;;26.10;41.00;;;;;;5096363;28;20498;-42
2021/10/10 10:05:33;;;;;;;7.10;6.50;;;26.50;40.00;;;;;;5096735;28;20561;-45
2021/10/10 10:08:01;;;;;;;51.60;36.93;;;26.60;39.80;;;;;;5096634;28;20458;-43
2021/10/10 10:10:30;;;;;;;10.40;8.47;;;26.50;39.40;;;;;;5096581;28;20460;-50
2021/10/10 10:13:01;;;;;;;9.70;7.13;;;26.50;38.30;;;;;;5096329;28;20490;-50
2021/10/10 10:15:30;;;;;;;13.23;7.93;;;26.30;39.30;;;;;;5096543;28;20462;-47
2021/10/10 10:17:58;;;;;;;12.90;7.00;;;26.00;39.00;;;;;;5096365;28;20488;-44
2021/10/10 10:20:25;;;;;;;9.80;8.47;;;26.00;38.70;;;;;;5096341;28;20471;-44
2021/10/10 10:22:54;;;;;;;6.80;5.40;;;26.20;39.50;;;;;;5096392;28;20472;-44
2021/10/10 10:25:22;;;;;;;13.27;9.33;;;26.30;37.80;;;;;;5096225;28;20465;-48
2021/10/10 10:27:51;;;;;;;10.53;7.53;;;26.20;37.40;;;;;;5096427;28;20466;-50
2021/10/10 10:30:19;;;;;;;8.83;5.83;;;25.90;36.90;;;;;;5097200;28;20431;-49
2021/10/10 10:32:46;;;;;;;10.17;7.23;;;25.70;36.80;;;;;;5096915;28;20478;-42
2021/10/10 10:35:15;;;;;;;7.87;5.70;;;25.40;37.60;;;;;;5096944;28;20473;-45
2021/10/10 10:37:53;;;;;;;13.97;6.40;;;25.00;37.70;;;;;;5096348;28;20466;-46
2021/10/10 10:40:38;;;;;;;8.87;7.63;;;25.00;37.70;;;;;;5096790;28;20431;-53
2021/10/10 10:43:07;;;;;;;7.90;5.80;;;24.50;38.10;;;;;;5096727;28;20463;-49
2021/10/10 10:45:37;;;;;;;7.63;6.03;;;24.10;39.30;;;;;;5137145;22;20485;-44
2021/10/10 10:48:08;;;;;;;7.63;5.87;;;23.80;40.00;;;;;;5116750;28;20465;-47
2021/10/10 10:50:37;;;;;;;12.10;6.80;;;23.50;39.60;;;;;;5136541;22;20508;-48
2021/10/10 10:53:06;;;;;;;14.47;7.10;;;22.90;40.20;;;;;;5095855;28;20494;-47
2021/10/10 10:55:38;;;;;;;7.40;6.10;;;22.40;40.90;;;;;;5151893;22;20468;-42
2021/10/10 10:58:11;;;;;;;9.80;6.07;;;22.10;42.20;;;;;;5095592;28;20458;-45
2021/10/10 11:00:40;;;;;;;14.80;6.73;;;21.50;42.70;;;;;;5105388;22;20407;-41
2021/10/10 11:03:16;;;;;;;10.93;6.60;;;21.10;44.20;;;;;;5098387;28;20464;-43
2021/10/10 11:08:34;;;;;;;7.50;5.07;;;20.20;43.60;;;;;;5105016;22;20501;-47
2021/10/10 11:11:17;;;;;;;8.97;5.77;;;19.90;45.60;;;;;;5108792;22;20426;-40
2021/10/10 11:13:49;;;;;;;10.40;7.17;;;19.40;46.30;;;;;;5077779;28;20497;-49
2021/10/10 11:16:17;;;;;;;9.13;5.40;;;19.10;45.60;;;;;;5088249;22;20439;-47
2021/10/10 11:18:50;;;;;;;8.43;5.63;;;18.70;45.70;;;;;;5118830;28;20437;-45
2021/10/10 11:23:50;;;;;;;7.90;4.70;;;18.20;45.70;;;;;;5120088;22;20474;-44
2021/10/10 11:26:17;;;;;;;6.97;4.93;;;17.90;46.70;;;;;;5098491;28;20415;-46
2021/10/10 11:28:47;;;;;;;8.03;4.40;;;17.60;46.80;;;;;;5105795;22;20543;-47
2021/10/10 11:31:16;;;;;;;7.63;5.40;;;17.50;46.30;;;;;;5098029;28;20465;-55
2021/10/10 11:33:45;;;;;;;7.00;5.07;;;17.30;46.70;;;;;;5097815;28;20485;-47
2021/10/10 11:36:12;;;;;;;6.90;4.83;;;17.20;46.90;;;;;;5098274;28;20434;-46
2021/10/10 11:38:54;;;;;;;7.80;5.40;;;17.10;47.10;;;;;;5098026;28;20493;-43
2021/10/10 11:41:21;;;;;;;9.73;4.50;;;17.00;49.10;;;;;;5098439;28;20426;-41
2021/10/10 11:43:58;;;;;;;12.07;5.70;;;16.80;48.30;;;;;;5098545;28;20455;-47
2021/10/10 11:46:25;;;;;;;6.10;3.83;;;16.80;49.10;;;;;;5098140;28;20438;-47
2021/10/10 11:48:54;;;;;;;7.03;4.50;;;16.80;48.50;;;;;;5097449;28;20444;-45
2021/10/10 11:51:34;;;;;;;6.47;4.73;;;16.60;48.40;;;;;;5097791;28;20470;-52
2021/10/10 11:54:01;;;;;;;10.70;5.10;;;16.50;48.80;;;;;;5097394;28;20489;-45
2021/10/10 11:56:28;;;;;;;15.00;4.80;;;16.50;49.00;;;;;;5097553;28;20441;-42
2021/10/10 11:59:09;;;;;;;8.00;5.93;;;16.40;49.30;;;;;;5097949;28;20443;-42
2021/10/10 12:01:36;;;;;;;6.53;4.30;;;16.40;50.10;;;;;;5097997;28;20435;-49
2021/10/10 12:04:02;;;;;;;6.93;4.47;;;16.40;51.70;;;;;;5098012;28;20438;-43
2021/10/10 12:06:29;;;;;;;8.07;5.17;;;16.50;49.50;;;;;;5098491;28;20434;-53
2021/10/10 12:09:10;;;;;;;7.33;4.93;;;16.40;49.20;;;;;;5098463;28;20446;-45
2021/10/10 12:11:37;;;;;;;6.50;4.50;;;16.50;50.60;;;;;;5097542;28;20430;-43
2021/10/10 12:14:05;;;;;;;8.80;4.20;;;16.50;49.40;;;;;;5097928;28;20497;-48
2021/10/10 12:16:40;;;;;;;8.30;5.50;;;16.40;50.00;;;;;;5097781;28;20442;-44
2021/10/10 12:19:07;;;;;;;8.80;3.90;;;16.50;49.60;;;;;;5097885;28;20470;-50
2021/10/10 12:21:36;;;;;;;8.80;4.70;;;16.50;49.60;;;;;;5097120;28;20456;-46
2021/10/10 12:24:11;;;;;;;7.10;4.50;;;16.60;48.70;;;;;;5097271;28;20473;-44
2021/10/10 12:26:49;;;;;;;11.97;4.90;;;16.70;49.10;;;;;;5097171;28;20422;-47
2021/10/10 12:29:26;;;;;;;4.37;3.80;;;16.80;48.80;;;;;;5097428;28;20419;-43
2021/10/10 12:31:53;;;;;;;14.67;5.00;;;16.70;48.70;;;;;;5096941;28;20461;-46
2021/10/10 12:34:29;;;;;;;8.17;4.27;;;16.70;48.20;;;;;;5096976;28;20508;-51
2021/10/10 12:36:56;;;;;;;7.30;4.60;;;16.80;49.20;;;;;;5097247;28;20922;-47
2021/10/10 12:39:40;;;;;;;5.80;4.63;;;16.90;49.00;;;;;;5096870;28;20530;-47
2021/10/10 12:42:06;;;;;;;7.60;5.10;;;17.00;49.70;;;;;;5097112;28;20456;-47
2021/10/10 12:44:34;;;;;;;8.80;5.00;;;17.10;48.10;;;;;;5096931;28;20454;-48
2021/10/10 12:47:01;;;;;;;12.77;4.80;;;17.00;47.00;;;;;;5097043;28;20449;-47
2021/10/10 12:49:30;;;;;;;5.10;3.97;;;16.80;46.80;;;;;;5096948;28;20458;-51
2021/10/10 12:51:57;;;;;;;7.00;4.10;;;16.80;47.50;;;;;;5096327;28;20450;-52
2021/10/10 12:54:26;;;;;;;8.33;4.47;;;16.90;47.60;;;;;;5096342;28;20490;-44
2021/10/10 12:57:16;;;;;;;4.90;3.80;;;16.90;48.80;;;;;;5096437;28;20439;-49
2021/10/10 12:59:52;;;;;;;5.70;4.00;;;17.00;48.00;;;;;;5091709;28;20454;-48